sensor_id;sensor_type;location;lat;lon;timestamp;P1;durP1;ratioP1;P2;durP2;ratioP2
9052;SDS011;4561;47.450;7.516;2023-01-28T00:01:29;18.30;;;15.50;;
9052;SDS011;4561;47.450;7.516;2023-01-28T00:04:49;17.90;;;15.27;;
9052;SDS011;4561;47.450;7.516;2023-01-28T00:08:10;18.57;;;16.30;;
9052;SDS011;4561;47.450;7.516;2023-01-28T00:11:32;20.07;;;16.17;;
9052;SDS011;4561;47.450;7.516;2023-01-28T00:14:52;21.23;;;14.90;;
9052;SDS011;4561;47.450;7.516;2023-01-28T00:18:13;18.17;;;15.20;;
9052;SDS011;4561;47.450;7.516;2023-01-28T00:21:33;18.30;;;15.40;;
9052;SDS011;4561;47.450;7.516;2023-01-28T00:24:59;17.73;;;15.13;;
9052;SDS011;4561;47.450;7.516;2023-01-28T00:28:22;20.30;;;15.87;;
9052;SDS011;4561;47.450;7.516;2023-01-28T00:31:45;19.93;;;16.23;;
9052;SDS011;4561;47.450;7.516;2023-01-28T00:35:06;20.80;;;16.90;;
9052;SDS011;4561;47.450;7.516;2023-01-28T00:38:27;20.27;;;16.37;;
9052;SDS011;4561;47.450;7.516;2023-01-28T00:41:47;20.70;;;16.47;;
9052;SDS011;4561;47.450;7.516;2023-01-28T00:45:08;19.70;;;16.80;;
9052;SDS011;4561;47.450;7.516;2023-01-28T00:48:29;19.43;;;15.43;;
9052;SDS011;4561;47.450;7.516;2023-01-28T00:51:49;19.40;;;16.07;;
9052;SDS011;4561;47.450;7.516;2023-01-28T00:55:13;19.73;;;15.03;;
9052;SDS011;4561;47.450;7.516;2023-01-28T00:58:34;16.17;;;14.40;;
9052;SDS011;4561;47.450;7.516;2023-01-28T01:01:56;16.53;;;13.37;;
9052;SDS011;4561;47.450;7.516;2023-01-28T01:05:31;14.80;;;13.23;;
9052;SDS011;4561;47.450;7.516;2023-01-28T01:08:52;15.37;;;13.00;;
9052;SDS011;4561;47.450;7.516;2023-01-28T01:12:13;17.03;;;13.40;;
9052;SDS011;4561;47.450;7.516;2023-01-28T01:15:33;15.57;;;13.37;;
9052;SDS011;4561;47.450;7.516;2023-01-28T01:18:54;15.37;;;13.73;;
9052;SDS011;4561;47.450;7.516;2023-01-28T01:22:15;15.43;;;13.73;;
9052;SDS011;4561;47.450;7.516;2023-01-28T01:25:35;17.17;;;14.63;;
9052;SDS011;4561;47.450;7.516;2023-01-28T01:28:55;18.10;;;14.73;;
9052;SDS011;4561;47.450;7.516;2023-01-28T01:32:16;16.63;;;13.93;;
9052;SDS011;4561;47.450;7.516;2023-01-28T01:35:37;15.33;;;12.83;;
9052;SDS011;4561;47.450;7.516;2023-01-28T01:38:57;15.20;;;12.03;;
9052;SDS011;4561;47.450;7.516;2023-01-28T01:42:18;14.27;;;12.40;;
9052;SDS011;4561;47.450;7.516;2023-01-28T01:45:41;16.17;;;12.53;;
9052;SDS011;4561;47.450;7.516;2023-01-28T01:49:24;12.80;;;11.50;;
9052;SDS011;4561;47.450;7.516;2023-01-28T01:52:49;16.23;;;13.13;;
9052;SDS011;4561;47.450;7.516;2023-01-28T01:56:13;14.47;;;12.97;;
9052;SDS011;4561;47.450;7.516;2023-01-28T01:59:36;17.90;;;14.87;;
9052;SDS011;4561;47.450;7.516;2023-01-28T02:02:59;17.63;;;14.87;;
9052;SDS011;4561;47.450;7.516;2023-01-28T02:06:20;16.80;;;13.63;;
9052;SDS011;4561;47.450;7.516;2023-01-28T02:09:41;15.77;;;13.53;;
9052;SDS011;4561;47.450;7.516;2023-01-28T02:13:04;16.93;;;14.50;;
9052;SDS011;4561;47.450;7.516;2023-01-28T02:16:25;18.60;;;15.80;;
9052;SDS011;4561;47.450;7.516;2023-01-28T02:20:07;19.37;;;16.47;;
9052;SDS011;4561;47.450;7.516;2023-01-28T02:23:36;21.07;;;16.20;;
9052;SDS011;4561;47.450;7.516;2023-01-28T02:30:31;20.17;;;17.00;;
9052;SDS011;4561;47.450;7.516;2023-01-28T02:38:14;16.13;;;13.67;;
9052;SDS011;4561;47.450;7.516;2023-01-28T02:41:45;15.17;;;13.57;;
9052;SDS011;4561;47.450;7.516;2023-01-28T02:45:26;16.20;;;14.40;;
9052;SDS011;4561;47.450;7.516;2023-01-28T02:49:10;12.93;;;11.10;;
9052;SDS011;4561;47.450;7.516;2023-01-28T03:00:16;14.00;;;12.50;;
9052;SDS011;4561;47.450;7.516;2023-01-28T03:03:56;17.43;;;14.27;;
9052;SDS011;4561;47.450;7.516;2023-01-28T03:07:19;15.70;;;13.47;;
9052;SDS011;4561;47.450;7.516;2023-01-28T03:10:43;14.87;;;13.13;;
9052;SDS011;4561;47.450;7.516;2023-01-28T03:14:04;15.77;;;13.63;;
9052;SDS011;4561;47.450;7.516;2023-01-28T03:18:29;15.13;;;13.07;;
9052;SDS011;4561;47.450;7.516;2023-01-28T03:21:48;16.97;;;14.17;;
9052;SDS011;4561;47.450;7.516;2023-01-28T03:25:27;13.43;;;11.53;;
9052;SDS011;4561;47.450;7.516;2023-01-28T03:29:07;13.30;;;11.93;;
9052;SDS011;4561;47.450;7.516;2023-01-28T03:32:48;15.13;;;12.80;;
9052;SDS011;4561;47.450;7.516;2023-01-28T03:36:28;15.43;;;12.27;;
9052;SDS011;4561;47.450;7.516;2023-01-28T03:40:08;13.37;;;11.37;;
9052;SDS011;4561;47.450;7.516;2023-01-28T03:43:30;14.17;;;11.93;;
9052;SDS011;4561;47.450;7.516;2023-01-28T03:46:50;13.77;;;11.67;;
9052;SDS011;4561;47.450;7.516;2023-01-28T03:50:11;14.90;;;12.77;;
9052;SDS011;4561;47.450;7.516;2023-01-28T03:53:31;13.83;;;12.37;;
9052;SDS011;4561;47.450;7.516;2023-01-28T03:56:52;15.57;;;12.60;;
9052;SDS011;4561;47.450;7.516;2023-01-28T04:00:12;13.50;;;11.77;;
9052;SDS011;4561;47.450;7.516;2023-01-28T04:03:36;13.27;;;11.70;;
9052;SDS011;4561;47.450;7.516;2023-01-28T04:06:59;13.77;;;11.43;;
9052;SDS011;4561;47.450;7.516;2023-01-28T04:10:22;13.77;;;11.30;;
9052;SDS011;4561;47.450;7.516;2023-01-28T04:13:43;16.93;;;12.67;;
9052;SDS011;4561;47.450;7.516;2023-01-28T04:17:04;13.20;;;11.80;;
9052;SDS011;4561;47.450;7.516;2023-01-28T04:20:26;14.43;;;12.70;;
9052;SDS011;4561;47.450;7.516;2023-01-28T04:23:46;17.50;;;13.70;;
9052;SDS011;4561;47.450;7.516;2023-01-28T04:27:10;15.30;;;11.93;;
9052;SDS011;4561;47.450;7.516;2023-01-28T04:30:32;13.47;;;12.03;;
9052;SDS011;4561;47.450;7.516;2023-01-28T04:33:53;15.03;;;13.30;;
9052;SDS011;4561;47.450;7.516;2023-01-28T04:37:15;15.10;;;13.27;;
9052;SDS011;4561;47.450;7.516;2023-01-28T04:40:38;13.23;;;11.83;;
9052;SDS011;4561;47.450;7.516;2023-01-28T04:43:58;14.37;;;12.73;;
9052;SDS011;4561;47.450;7.516;2023-01-28T04:47:19;18.40;;;14.97;;
9052;SDS011;4561;47.450;7.516;2023-01-28T04:50:44;17.87;;;15.30;;
9052;SDS011;4561;47.450;7.516;2023-01-28T04:54:07;15.30;;;13.17;;
9052;SDS011;4561;47.450;7.516;2023-01-28T04:57:27;14.63;;;12.97;;
9052;SDS011;4561;47.450;7.516;2023-01-28T05:00:52;14.13;;;12.63;;
9052;SDS011;4561;47.450;7.516;2023-01-28T05:04:14;16.20;;;14.30;;
9052;SDS011;4561;47.450;7.516;2023-01-28T05:07:38;15.53;;;13.27;;
9052;SDS011;4561;47.450;7.516;2023-01-28T05:10:58;15.90;;;13.20;;
9052;SDS011;4561;47.450;7.516;2023-01-28T05:14:19;16.60;;;14.13;;
9052;SDS011;4561;47.450;7.516;2023-01-28T05:17:42;16.03;;;13.83;;
9052;SDS011;4561;47.450;7.516;2023-01-28T05:21:05;14.43;;;12.50;;
9052;SDS011;4561;47.450;7.516;2023-01-28T05:24:26;15.33;;;13.73;;
9052;SDS011;4561;47.450;7.516;2023-01-28T05:27:49;16.30;;;14.27;;
9052;SDS011;4561;47.450;7.516;2023-01-28T05:31:10;15.10;;;13.50;;
9052;SDS011;4561;47.450;7.516;2023-01-28T05:34:33;13.87;;;12.30;;
9052;SDS011;4561;47.450;7.516;2023-01-28T05:37:53;14.40;;;12.90;;
9052;SDS011;4561;47.450;7.516;2023-01-28T05:41:14;14.30;;;12.10;;
9052;SDS011;4561;47.450;7.516;2023-01-28T05:44:36;15.10;;;12.57;;
9052;SDS011;4561;47.450;7.516;2023-01-28T05:47:59;15.10;;;13.27;;
9052;SDS011;4561;47.450;7.516;2023-01-28T05:51:22;14.77;;;13.17;;
9052;SDS011;4561;47.450;7.516;2023-01-28T05:54:42;15.97;;;13.00;;
9052;SDS011;4561;47.450;7.516;2023-01-28T05:58:05;15.93;;;12.57;;
9052;SDS011;4561;47.450;7.516;2023-01-28T06:01:28;16.07;;;12.57;;
9052;SDS011;4561;47.450;7.516;2023-01-28T06:04:51;15.53;;;13.10;;
9052;SDS011;4561;47.450;7.516;2023-01-28T06:08:11;15.13;;;13.07;;
9052;SDS011;4561;47.450;7.516;2023-01-28T06:11:32;14.90;;;12.97;;
9052;SDS011;4561;47.450;7.516;2023-01-28T06:14:54;15.87;;;12.87;;
9052;SDS011;4561;47.450;7.516;2023-01-28T06:18:20;15.87;;;13.70;;
9052;SDS011;4561;47.450;7.516;2023-01-28T06:21:43;13.67;;;11.80;;
9052;SDS011;4561;47.450;7.516;2023-01-28T06:25:06;15.10;;;13.47;;
9052;SDS011;4561;47.450;7.516;2023-01-28T06:28:26;15.50;;;13.33;;
9052;SDS011;4561;47.450;7.516;2023-01-28T06:31:47;15.63;;;13.07;;
9052;SDS011;4561;47.450;7.516;2023-01-28T06:35:07;17.10;;;13.97;;
9052;SDS011;4561;47.450;7.516;2023-01-28T06:38:28;14.70;;;13.10;;
9052;SDS011;4561;47.450;7.516;2023-01-28T06:41:49;14.67;;;12.10;;
9052;SDS011;4561;47.450;7.516;2023-01-28T06:45:09;14.87;;;12.63;;
9052;SDS011;4561;47.450;7.516;2023-01-28T06:48:35;15.87;;;13.17;;
9052;SDS011;4561;47.450;7.516;2023-01-28T06:51:55;14.57;;;12.80;;
9052;SDS011;4561;47.450;7.516;2023-01-28T06:55:18;15.83;;;12.73;;
9052;SDS011;4561;47.450;7.516;2023-01-28T06:58:39;16.70;;;13.30;;
9052;SDS011;4561;47.450;7.516;2023-01-28T07:02:01;14.23;;;12.73;;
9052;SDS011;4561;47.450;7.516;2023-01-28T07:05:22;14.63;;;13.10;;
9052;SDS011;4561;47.450;7.516;2023-01-28T07:08:42;13.30;;;11.83;;
9052;SDS011;4561;47.450;7.516;2023-01-28T07:12:03;15.37;;;12.87;;
9052;SDS011;4561;47.450;7.516;2023-01-28T07:15:24;15.27;;;12.67;;
9052;SDS011;4561;47.450;7.516;2023-01-28T07:18:44;16.20;;;13.53;;
9052;SDS011;4561;47.450;7.516;2023-01-28T07:22:05;15.60;;;13.27;;
9052;SDS011;4561;47.450;7.516;2023-01-28T07:25:25;15.00;;;12.20;;
9052;SDS011;4561;47.450;7.516;2023-01-28T07:28:45;13.93;;;12.43;;
9052;SDS011;4561;47.450;7.516;2023-01-28T07:32:09;13.97;;;12.33;;
9052;SDS011;4561;47.450;7.516;2023-01-28T07:35:33;15.27;;;12.90;;
9052;SDS011;4561;47.450;7.516;2023-01-28T07:38:54;13.97;;;12.47;;
9052;SDS011;4561;47.450;7.516;2023-01-28T07:42:14;15.13;;;13.40;;
9052;SDS011;4561;47.450;7.516;2023-01-28T07:45:35;14.53;;;13.00;;
9052;SDS011;4561;47.450;7.516;2023-01-28T07:48:57;14.43;;;12.93;;
9052;SDS011;4561;47.450;7.516;2023-01-28T07:52:18;14.63;;;12.70;;
9052;SDS011;4561;47.450;7.516;2023-01-28T07:55:38;15.03;;;12.77;;
9052;SDS011;4561;47.450;7.516;2023-01-28T07:59:03;13.37;;;11.83;;
9052;SDS011;4561;47.450;7.516;2023-01-28T08:02:23;13.20;;;11.67;;
9052;SDS011;4561;47.450;7.516;2023-01-28T08:05:45;14.87;;;11.97;;
9052;SDS011;4561;47.450;7.516;2023-01-28T08:09:07;13.43;;;12.03;;
9052;SDS011;4561;47.450;7.516;2023-01-28T08:12:27;14.57;;;12.97;;
9052;SDS011;4561;47.450;7.516;2023-01-28T08:15:48;14.20;;;12.70;;
9052;SDS011;4561;47.450;7.516;2023-01-28T08:19:10;14.07;;;11.93;;
9052;SDS011;4561;47.450;7.516;2023-01-28T08:22:31;16.97;;;13.20;;
9052;SDS011;4561;47.450;7.516;2023-01-28T08:25:54;12.33;;;11.03;;
9052;SDS011;4561;47.450;7.516;2023-01-28T08:29:14;15.50;;;12.87;;
9052;SDS011;4561;47.450;7.516;2023-01-28T08:32:35;14.20;;;12.50;;
9052;SDS011;4561;47.450;7.516;2023-01-28T08:36:01;13.80;;;12.33;;
9052;SDS011;4561;47.450;7.516;2023-01-28T08:39:22;13.27;;;11.67;;
9052;SDS011;4561;47.450;7.516;2023-01-28T08:42:46;16.07;;;12.47;;
9052;SDS011;4561;47.450;7.516;2023-01-28T08:46:09;13.70;;;11.97;;
9052;SDS011;4561;47.450;7.516;2023-01-28T08:49:33;15.13;;;12.27;;
9052;SDS011;4561;47.450;7.516;2023-01-28T08:52:58;13.70;;;12.23;;
9052;SDS011;4561;47.450;7.516;2023-01-28T08:56:20;14.17;;;12.47;;
9052;SDS011;4561;47.450;7.516;2023-01-28T08:59:40;11.77;;;10.30;;
9052;SDS011;4561;47.450;7.516;2023-01-28T09:03:05;13.03;;;11.63;;
9052;SDS011;4561;47.450;7.516;2023-01-28T09:06:26;13.50;;;11.43;;
9052;SDS011;4561;47.450;7.516;2023-01-28T09:09:51;15.80;;;11.73;;
9052;SDS011;4561;47.450;7.516;2023-01-28T09:13:13;11.60;;;9.60;;
9052;SDS011;4561;47.450;7.516;2023-01-28T09:16:34;13.00;;;11.60;;
9052;SDS011;4561;47.450;7.516;2023-01-28T09:19:55;14.20;;;11.73;;
9052;SDS011;4561;47.450;7.516;2023-01-28T09:23:18;14.07;;;12.57;;
9052;SDS011;4561;47.450;7.516;2023-01-28T09:26:38;15.10;;;12.17;;
9052;SDS011;4561;47.450;7.516;2023-01-28T09:30:04;12.60;;;11.20;;
9052;SDS011;4561;47.450;7.516;2023-01-28T09:33:26;13.43;;;11.47;;
9052;SDS011;4561;47.450;7.516;2023-01-28T09:36:46;13.27;;;11.87;;
9052;SDS011;4561;47.450;7.516;2023-01-28T09:40:08;13.93;;;11.73;;
9052;SDS011;4561;47.450;7.516;2023-01-28T09:47:06;13.63;;;12.17;;
9052;SDS011;4561;47.450;7.516;2023-01-28T09:50:31;12.40;;;11.17;;
9052;SDS011;4561;47.450;7.516;2023-01-28T09:53:53;12.47;;;11.13;;
9052;SDS011;4561;47.450;7.516;2023-01-28T09:57:33;13.20;;;10.87;;
9052;SDS011;4561;47.450;7.516;2023-01-28T10:16:18;12.33;;;10.70;;
9052;SDS011;4561;47.450;7.516;2023-01-28T10:23:25;13.00;;;11.60;;
9052;SDS011;4561;47.450;7.516;2023-01-28T10:26:51;13.77;;;11.13;;
9052;SDS011;4561;47.450;7.516;2023-01-28T10:30:18;12.13;;;10.80;;
9052;SDS011;4561;47.450;7.516;2023-01-28T10:33:39;11.97;;;10.67;;
9052;SDS011;4561;47.450;7.516;2023-01-28T10:36:59;12.83;;;11.00;;
9052;SDS011;4561;47.450;7.516;2023-01-28T10:40:20;11.93;;;10.50;;
9052;SDS011;4561;47.450;7.516;2023-01-28T10:43:40;13.00;;;9.80;;
9052;SDS011;4561;47.450;7.516;2023-01-28T10:47:03;11.80;;;10.60;;
9052;SDS011;4561;47.450;7.516;2023-01-28T10:50:35;14.80;;;11.60;;
9052;SDS011;4561;47.450;7.516;2023-01-28T10:53:55;13.57;;;10.93;;
9052;SDS011;4561;47.450;7.516;2023-01-28T10:57:16;11.03;;;9.93;;
9052;SDS011;4561;47.450;7.516;2023-01-28T11:00:38;10.60;;;9.50;;
9052;SDS011;4561;47.450;7.516;2023-01-28T11:04:00;11.83;;;9.60;;
9052;SDS011;4561;47.450;7.516;2023-01-28T11:07:21;12.03;;;10.27;;
9052;SDS011;4561;47.450;7.516;2023-01-28T11:10:44;10.90;;;9.70;;
9052;SDS011;4561;47.450;7.516;2023-01-28T11:14:17;10.73;;;9.40;;
9052;SDS011;4561;47.450;7.516;2023-01-28T11:17:39;12.57;;;9.23;;
9052;SDS011;4561;47.450;7.516;2023-01-28T11:21:29;11.07;;;9.30;;
9052;SDS011;4561;47.450;7.516;2023-01-28T11:24:48;11.17;;;9.87;;
9052;SDS011;4561;47.450;7.516;2023-01-28T11:28:17;10.60;;;9.20;;
9052;SDS011;4561;47.450;7.516;2023-01-28T11:31:42;11.70;;;9.67;;
9052;SDS011;4561;47.450;7.516;2023-01-28T11:35:04;11.57;;;10.10;;
9052;SDS011;4561;47.450;7.516;2023-01-28T11:38:27;10.93;;;9.37;;
9052;SDS011;4561;47.450;7.516;2023-01-28T11:41:47;11.40;;;10.20;;
9052;SDS011;4561;47.450;7.516;2023-01-28T11:45:11;11.00;;;9.40;;
9052;SDS011;4561;47.450;7.516;2023-01-28T11:48:44;9.80;;;8.50;;
9052;SDS011;4561;47.450;7.516;2023-01-28T12:21:37;9.67;;;8.67;;
9052;SDS011;4561;47.450;7.516;2023-01-28T12:46:25;10.17;;;8.63;;
9052;SDS011;4561;47.450;7.516;2023-01-28T12:49:57;9.90;;;8.90;;
9052;SDS011;4561;47.450;7.516;2023-01-28T12:56:53;10.63;;;9.53;;
9052;SDS011;4561;47.450;7.516;2023-01-28T13:00:18;11.37;;;9.30;;
9052;SDS011;4561;47.450;7.516;2023-01-28T13:04:03;10.67;;;8.63;;
9052;SDS011;4561;47.450;7.516;2023-01-28T13:07:34;11.23;;;8.50;;
9052;SDS011;4561;47.450;7.516;2023-01-28T13:10:57;9.63;;;8.50;;
9052;SDS011;4561;47.450;7.516;2023-01-28T13:14:20;10.53;;;8.83;;
9052;SDS011;4561;47.450;7.516;2023-01-28T13:17:57;8.77;;;7.77;;
9052;SDS011;4561;47.450;7.516;2023-01-28T13:24:44;9.70;;;8.70;;
9052;SDS011;4561;47.450;7.516;2023-01-28T13:28:05;9.30;;;8.33;;
9052;SDS011;4561;47.450;7.516;2023-01-28T13:31:26;9.43;;;7.97;;
9052;SDS011;4561;47.450;7.516;2023-01-28T13:34:59;10.03;;;7.67;;
9052;SDS011;4561;47.450;7.516;2023-01-28T13:38:23;9.37;;;8.03;;
9052;SDS011;4561;47.450;7.516;2023-01-28T13:41:45;11.63;;;8.97;;
9052;SDS011;4561;47.450;7.516;2023-01-28T13:48:54;9.00;;;8.10;;
9052;SDS011;4561;47.450;7.516;2023-01-28T13:52:19;10.53;;;8.50;;
9052;SDS011;4561;47.450;7.516;2023-01-28T13:55:43;8.83;;;7.73;;
9052;SDS011;4561;47.450;7.516;2023-01-28T13:59:17;8.63;;;7.73;;
9052;SDS011;4561;47.450;7.516;2023-01-28T14:20:39;7.60;;;6.80;;
9052;SDS011;4561;47.450;7.516;2023-01-28T14:24:03;8.30;;;7.40;;
9052;SDS011;4561;47.450;7.516;2023-01-28T14:27:29;8.80;;;7.90;;
9052;SDS011;4561;47.450;7.516;2023-01-28T14:37:36;9.23;;;7.50;;
9052;SDS011;4561;47.450;7.516;2023-01-28T14:40:57;7.83;;;7.00;;
9052;SDS011;4561;47.450;7.516;2023-01-28T14:51:26;8.47;;;7.37;;
9052;SDS011;4561;47.450;7.516;2023-01-28T14:58:51;9.20;;;7.23;;
9052;SDS011;4561;47.450;7.516;2023-01-28T15:02:21;8.57;;;7.67;;
9052;SDS011;4561;47.450;7.516;2023-01-28T15:05:48;8.70;;;7.73;;
9052;SDS011;4561;47.450;7.516;2023-01-28T15:09:10;8.63;;;7.70;;
9052;SDS011;4561;47.450;7.516;2023-01-28T15:12:37;9.60;;;7.57;;
9052;SDS011;4561;47.450;7.516;2023-01-28T15:16:01;9.43;;;8.10;;
9052;SDS011;4561;47.450;7.516;2023-01-28T15:19:24;8.60;;;7.70;;
9052;SDS011;4561;47.450;7.516;2023-01-28T15:22:52;8.33;;;7.50;;
9052;SDS011;4561;47.450;7.516;2023-01-28T15:26:14;8.10;;;7.30;;
9052;SDS011;4561;47.450;7.516;2023-01-28T15:29:37;7.73;;;6.97;;
9052;SDS011;4561;47.450;7.516;2023-01-28T15:33:19;9.37;;;6.93;;
9052;SDS011;4561;47.450;7.516;2023-01-28T15:36:42;14.27;;;10.77;;
9052;SDS011;4561;47.450;7.516;2023-01-28T15:40:05;9.70;;;7.50;;
9052;SDS011;4561;47.450;7.516;2023-01-28T15:43:30;9.63;;;7.93;;
9052;SDS011;4561;47.450;7.516;2023-01-28T15:46:55;7.60;;;6.37;;
9052;SDS011;4561;47.450;7.516;2023-01-28T15:50:19;7.90;;;6.37;;
9052;SDS011;4561;47.450;7.516;2023-01-28T15:53:46;8.80;;;7.80;;
9052;SDS011;4561;47.450;7.516;2023-01-28T16:00:43;7.73;;;6.93;;
9052;SDS011;4561;47.450;7.516;2023-01-28T16:04:04;8.80;;;7.60;;
9052;SDS011;4561;47.450;7.516;2023-01-28T16:07:26;7.07;;;5.90;;
9052;SDS011;4561;47.450;7.516;2023-01-28T16:10:52;6.30;;;5.70;;
9052;SDS011;4561;47.450;7.516;2023-01-28T16:14:56;6.83;;;5.97;;
9052;SDS011;4561;47.450;7.516;2023-01-28T16:18:04;6.17;;;5.50;;
9052;SDS011;4561;47.450;7.516;2023-01-28T16:21:26;6.20;;;5.53;;
9052;SDS011;4561;47.450;7.516;2023-01-28T16:24:55;8.77;;;6.87;;
9052;SDS011;4561;47.450;7.516;2023-01-28T16:28:18;7.20;;;6.47;;
9052;SDS011;4561;47.450;7.516;2023-01-28T16:31:38;8.87;;;6.30;;
9052;SDS011;4561;47.450;7.516;2023-01-28T16:34:59;8.10;;;7.27;;
9052;SDS011;4561;47.450;7.516;2023-01-28T16:38:20;8.27;;;6.83;;
9052;SDS011;4561;47.450;7.516;2023-01-28T16:41:41;7.43;;;6.60;;
9052;SDS011;4561;47.450;7.516;2023-01-28T16:45:03;8.13;;;6.77;;
9052;SDS011;4561;47.450;7.516;2023-01-28T16:48:24;8.07;;;6.97;;
9052;SDS011;4561;47.450;7.516;2023-01-28T16:51:44;9.10;;;7.87;;
9052;SDS011;4561;47.450;7.516;2023-01-28T16:55:08;10.17;;;8.13;;
9052;SDS011;4561;47.450;7.516;2023-01-28T16:58:35;10.97;;;8.00;;
9052;SDS011;4561;47.450;7.516;2023-01-28T17:01:55;14.37;;;8.30;;
9052;SDS011;4561;47.450;7.516;2023-01-28T17:05:16;8.33;;;6.43;;
9052;SDS011;4561;47.450;7.516;2023-01-28T17:08:36;10.30;;;8.30;;
9052;SDS011;4561;47.450;7.516;2023-01-28T17:11:57;6.10;;;5.50;;
9052;SDS011;4561;47.450;7.516;2023-01-28T17:15:20;7.57;;;5.83;;
9052;SDS011;4561;47.450;7.516;2023-01-28T17:18:40;6.90;;;6.17;;
9052;SDS011;4561;47.450;7.516;2023-01-28T17:22:00;8.67;;;5.90;;
9052;SDS011;4561;47.450;7.516;2023-01-28T17:25:25;7.63;;;6.43;;
9052;SDS011;4561;47.450;7.516;2023-01-28T17:28:51;7.53;;;6.73;;
9052;SDS011;4561;47.450;7.516;2023-01-28T17:32:12;7.47;;;5.67;;
9052;SDS011;4561;47.450;7.516;2023-01-28T17:35:33;7.90;;;7.03;;
9052;SDS011;4561;47.450;7.516;2023-01-28T17:38:54;8.30;;;7.40;;
9052;SDS011;4561;47.450;7.516;2023-01-28T17:42:17;7.90;;;6.77;;
9052;SDS011;4561;47.450;7.516;2023-01-28T17:45:37;8.47;;;7.30;;
9052;SDS011;4561;47.450;7.516;2023-01-28T17:49:02;7.10;;;6.40;;
9052;SDS011;4561;47.450;7.516;2023-01-28T17:52:25;7.03;;;6.33;;
9052;SDS011;4561;47.450;7.516;2023-01-28T17:55:45;6.90;;;6.20;;
9052;SDS011;4561;47.450;7.516;2023-01-28T17:59:08;8.47;;;7.40;;
9052;SDS011;4561;47.450;7.516;2023-01-28T18:02:29;9.07;;;7.70;;
9052;SDS011;4561;47.450;7.516;2023-01-28T18:06:00;8.47;;;7.57;;
9052;SDS011;4561;47.450;7.516;2023-01-28T18:09:23;7.83;;;7.07;;
9052;SDS011;4561;47.450;7.516;2023-01-28T18:12:46;8.20;;;7.40;;
9052;SDS011;4561;47.450;7.516;2023-01-28T18:16:13;8.53;;;7.63;;
9052;SDS011;4561;47.450;7.516;2023-01-28T18:19:36;7.97;;;7.17;;
9052;SDS011;4561;47.450;7.516;2023-01-28T18:22:59;8.80;;;7.20;;
9052;SDS011;4561;47.450;7.516;2023-01-28T18:26:22;9.30;;;8.13;;
9052;SDS011;4561;47.450;7.516;2023-01-28T18:29:42;9.10;;;8.00;;
9052;SDS011;4561;47.450;7.516;2023-01-28T18:33:03;7.97;;;7.17;;
9052;SDS011;4561;47.450;7.516;2023-01-28T18:36:25;11.53;;;8.27;;
9052;SDS011;4561;47.450;7.516;2023-01-28T18:39:46;8.40;;;7.50;;
9052;SDS011;4561;47.450;7.516;2023-01-28T18:43:09;9.30;;;8.03;;
9052;SDS011;4561;47.450;7.516;2023-01-28T18:46:36;8.83;;;7.93;;
9052;SDS011;4561;47.450;7.516;2023-01-28T18:49:56;9.57;;;7.87;;
9052;SDS011;4561;47.450;7.516;2023-01-28T18:53:17;10.40;;;9.30;;
9052;SDS011;4561;47.450;7.516;2023-01-28T18:56:38;11.33;;;9.40;;
9052;SDS011;4561;47.450;7.516;2023-01-28T19:00:01;12.80;;;10.00;;
9052;SDS011;4561;47.450;7.516;2023-01-28T19:03:24;10.83;;;9.30;;
9052;SDS011;4561;47.450;7.516;2023-01-28T19:06:48;10.87;;;9.03;;
9052;SDS011;4561;47.450;7.516;2023-01-28T19:10:08;9.67;;;8.60;;
9052;SDS011;4561;47.450;7.516;2023-01-28T19:13:31;9.87;;;8.53;;
9052;SDS011;4561;47.450;7.516;2023-01-28T19:16:54;9.60;;;8.60;;
9052;SDS011;4561;47.450;7.516;2023-01-28T19:20:16;10.00;;;8.43;;
9052;SDS011;4561;47.450;7.516;2023-01-28T19:23:37;9.83;;;8.67;;
9052;SDS011;4561;47.450;7.516;2023-01-28T19:27:00;11.50;;;9.83;;
9052;SDS011;4561;47.450;7.516;2023-01-28T19:30:22;11.27;;;9.87;;
9052;SDS011;4561;47.450;7.516;2023-01-28T19:33:43;12.37;;;10.70;;
9052;SDS011;4561;47.450;7.516;2023-01-28T19:37:03;10.57;;;8.70;;
9052;SDS011;4561;47.450;7.516;2023-01-28T19:40:26;10.40;;;8.60;;
9052;SDS011;4561;47.450;7.516;2023-01-28T19:43:49;10.67;;;9.03;;
9052;SDS011;4561;47.450;7.516;2023-01-28T19:47:09;10.70;;;8.87;;
9052;SDS011;4561;47.450;7.516;2023-01-28T19:50:32;13.37;;;11.30;;
9052;SDS011;4561;47.450;7.516;2023-01-28T19:53:55;10.97;;;9.77;;
9052;SDS011;4561;47.450;7.516;2023-01-28T19:57:18;10.30;;;9.10;;
9052;SDS011;4561;47.450;7.516;2023-01-28T20:00:39;11.20;;;9.67;;
9052;SDS011;4561;47.450;7.516;2023-01-28T20:04:02;9.70;;;8.70;;
9052;SDS011;4561;47.450;7.516;2023-01-28T20:07:23;10.77;;;9.47;;
9052;SDS011;4561;47.450;7.516;2023-01-28T20:10:44;13.17;;;10.13;;
9052;SDS011;4561;47.450;7.516;2023-01-28T20:14:04;10.57;;;9.47;;
9052;SDS011;4561;47.450;7.516;2023-01-28T20:17:24;12.03;;;9.87;;
9052;SDS011;4561;47.450;7.516;2023-01-28T20:20:52;11.63;;;9.80;;
9052;SDS011;4561;47.450;7.516;2023-01-28T20:24:13;12.10;;;9.70;;
9052;SDS011;4561;47.450;7.516;2023-01-28T20:27:36;11.83;;;8.97;;
9052;SDS011;4561;47.450;7.516;2023-01-28T20:31:01;10.47;;;9.37;;
9052;SDS011;4561;47.450;7.516;2023-01-28T20:34:25;11.03;;;9.27;;
9052;SDS011;4561;47.450;7.516;2023-01-28T20:37:46;9.50;;;8.53;;
9052;SDS011;4561;47.450;7.516;2023-01-28T20:41:07;8.63;;;7.73;;
9052;SDS011;4561;47.450;7.516;2023-01-28T20:44:29;11.07;;;9.23;;
9052;SDS011;4561;47.450;7.516;2023-01-28T20:47:51;11.13;;;9.73;;
9052;SDS011;4561;47.450;7.516;2023-01-28T20:54:36;11.27;;;9.93;;
9052;SDS011;4561;47.450;7.516;2023-01-28T20:58:01;11.40;;;9.50;;
9052;SDS011;4561;47.450;7.516;2023-01-28T21:01:24;11.77;;;9.57;;
9052;SDS011;4561;47.450;7.516;2023-01-28T21:04:46;9.80;;;8.60;;
9052;SDS011;4561;47.450;7.516;2023-01-28T21:08:06;8.30;;;7.40;;
9052;SDS011;4561;47.450;7.516;2023-01-28T21:11:27;10.87;;;7.57;;
9052;SDS011;4561;47.450;7.516;2023-01-28T21:14:51;8.87;;;7.93;;
9052;SDS011;4561;47.450;7.516;2023-01-28T21:18:14;9.93;;;8.80;;
9052;SDS011;4561;47.450;7.516;2023-01-28T21:21:34;12.80;;;8.90;;
9052;SDS011;4561;47.450;7.516;2023-01-28T21:25:01;8.63;;;7.43;;
9052;SDS011;4561;47.450;7.516;2023-01-28T21:28:21;9.87;;;8.57;;
9052;SDS011;4561;47.450;7.516;2023-01-28T21:31:42;10.30;;;8.60;;
9052;SDS011;4561;47.450;7.516;2023-01-28T21:35:03;10.00;;;8.63;;
9052;SDS011;4561;47.450;7.516;2023-01-28T21:38:28;11.50;;;10.10;;
9052;SDS011;4561;47.450;7.516;2023-01-28T21:41:50;11.97;;;8.67;;
9052;SDS011;4561;47.450;7.516;2023-01-28T21:45:11;12.53;;;10.47;;
9052;SDS011;4561;47.450;7.516;2023-01-28T21:48:31;12.13;;;10.23;;
9052;SDS011;4561;47.450;7.516;2023-01-28T21:51:54;12.50;;;10.70;;
9052;SDS011;4561;47.450;7.516;2023-01-28T21:55:15;11.93;;;9.27;;
9052;SDS011;4561;47.450;7.516;2023-01-28T21:58:38;10.77;;;8.40;;
9052;SDS011;4561;47.450;7.516;2023-01-28T22:02:17;8.87;;;7.57;;
9052;SDS011;4561;47.450;7.516;2023-01-28T22:05:39;9.70;;;8.23;;
9052;SDS011;4561;47.450;7.516;2023-01-28T22:09:00;14.63;;;10.97;;
9052;SDS011;4561;47.450;7.516;2023-01-28T22:12:23;9.93;;;8.63;;
9052;SDS011;4561;47.450;7.516;2023-01-28T22:15:44;11.77;;;9.33;;
9052;SDS011;4561;47.450;7.516;2023-01-28T22:19:07;11.17;;;8.77;;
9052;SDS011;4561;47.450;7.516;2023-01-28T22:22:30;9.23;;;7.40;;
9052;SDS011;4561;47.450;7.516;2023-01-28T22:25:50;11.23;;;8.40;;
9052;SDS011;4561;47.450;7.516;2023-01-28T22:29:14;9.27;;;7.97;;
9052;SDS011;4561;47.450;7.516;2023-01-28T22:32:35;9.10;;;7.23;;
9052;SDS011;4561;47.450;7.516;2023-01-28T22:35:55;8.47;;;7.53;;
9052;SDS011;4561;47.450;7.516;2023-01-28T22:39:16;8.07;;;6.83;;
9052;SDS011;4561;47.450;7.516;2023-01-28T22:42:36;8.83;;;7.53;;
9052;SDS011;4561;47.450;7.516;2023-01-28T22:45:57;9.30;;;7.93;;
9052;SDS011;4561;47.450;7.516;2023-01-28T22:49:21;7.67;;;6.87;;
9052;SDS011;4561;47.450;7.516;2023-01-28T22:52:42;8.40;;;7.40;;
9052;SDS011;4561;47.450;7.516;2023-01-28T22:56:02;6.87;;;5.60;;
9052;SDS011;4561;47.450;7.516;2023-01-28T22:59:23;7.53;;;6.43;;
9052;SDS011;4561;47.450;7.516;2023-01-28T23:02:45;7.37;;;6.67;;